Alida, Minnesota
Current Conditions -  °F | °C
As of 6:53 AM on Wednesday 26 Nov 2014 (Local Time) from KBJI Reporting Station
Light Snow Light Snow  
Wind Chill: -3°   Ceiling: 1300
Heat Index: 10°   Visibility: 7mi
Dew Point:   Wind: 10mph
Humidity: 84%   Direction: 360°N
Pressure: 30.19"   Gusts: NA
Location:  47.4609°N, 95.2384°W
Report Text: KBJI 261253Z AUTO 36009KT 7SM -SN OVC013 M12/M14 A3019 RMK AO2 T11201142
Loading
Personal Weather Stations






























Interactive Weather Map New forecast layout! Learn more

10-Day Weather Forecast

Advertisements
Track Severe Weather on mobile